createdAt,value
2022-08-17T00:01:16.107Z,8.80
2022-08-17T00:03:49.409Z,7.87
2022-08-17T00:06:21.254Z,7.90
2022-08-17T00:08:53.062Z,6.77
2022-08-17T00:11:24.885Z,7.53
2022-08-17T00:13:56.732Z,7.33
2022-08-17T00:16:55.922Z,6.67
2022-08-17T00:19:07.324Z,6.87
2022-08-17T00:21:44.691Z,5.67
2022-08-17T00:24:08.967Z,6.70
2022-08-17T00:26:45.164Z,5.97
2022-08-17T00:29:19.536Z,6.13
2022-08-17T00:31:47.611Z,6.87
2022-08-17T00:34:19.421Z,7.20
2022-08-17T00:36:51.281Z,6.93
2022-08-17T00:39:23.087Z,7.50
2022-08-17T00:41:55.046Z,7.93
2022-08-17T00:44:30.015Z,6.83
2022-08-17T00:47:01.966Z,6.50
2022-08-17T00:49:33.811Z,7.20
2022-08-17T00:52:05.640Z,6.20
2022-08-17T00:54:41.654Z,6.93
2022-08-17T00:57:12.571Z,6.17
2022-08-17T00:59:44.391Z,5.90
2022-08-17T01:02:16.206Z,6.17
2022-08-17T01:04:48.040Z,6.23
2022-08-17T01:07:19.860Z,7.07
2022-08-17T01:09:51.692Z,9.63
2022-08-17T01:12:23.555Z,8.70
2022-08-17T01:14:55.815Z,7.07
2022-08-17T01:17:27.615Z,7.07
2022-08-17T01:19:59.617Z,6.73
2022-08-17T01:22:31.451Z,6.77
2022-08-17T01:25:03.290Z,6.80
2022-08-17T01:27:35.278Z,6.57
2022-08-17T01:30:58.401Z,6.50
2022-08-17T01:32:40.974Z,6.67
2022-08-17T01:35:12.807Z,6.37
2022-08-17T01:37:44.645Z,5.80
2022-08-17T01:40:16.474Z,6.10
2022-08-17T01:42:48.372Z,6.17
2022-08-17T01:45:20.274Z,6.53
2022-08-17T01:47:52.086Z,6.67
2022-08-17T01:50:24.649Z,6.50
2022-08-17T01:52:56.426Z,6.00
2022-08-17T01:55:28.249Z,5.43
2022-08-17T01:58:00.077Z,6.60
2022-08-17T02:01:00.214Z,6.33
2022-08-17T02:03:06.975Z,6.03
2022-08-17T02:05:38.764Z,6.20
2022-08-17T02:08:19.766Z,7.00
2022-08-17T02:10:46.822Z,6.80
2022-08-17T02:13:17.484Z,6.63
2022-08-17T02:15:49.388Z,8.07
2022-08-17T02:18:21.180Z,8.10
2022-08-17T02:20:52.985Z,8.30
2022-08-17T02:23:24.855Z,6.10
2022-08-17T02:25:56.679Z,4.50
2022-08-17T02:28:28.563Z,2.90
2022-08-17T02:31:03.010Z,2.87
2022-08-17T02:33:42.706Z,4.03
2022-08-17T02:36:07.547Z,2.40
2022-08-17T02:38:39.388Z,2.30
2022-08-17T02:41:11.166Z,2.60
2022-08-17T02:43:43.030Z,2.60
2022-08-17T02:46:14.825Z,3.10
2022-08-17T02:48:46.667Z,3.10
2022-08-17T02:51:18.506Z,3.00
2022-08-17T02:53:50.391Z,2.93
2022-08-17T02:56:22.214Z,3.40
2022-08-17T02:58:54.030Z,3.27
2022-08-17T03:01:25.935Z,3.63
2022-08-17T03:03:57.836Z,3.73
2022-08-17T03:06:29.659Z,4.53
2022-08-17T03:09:01.512Z,5.93
2022-08-17T03:11:33.285Z,5.83
2022-08-17T03:14:05.158Z,5.47
2022-08-17T03:16:36.952Z,5.60
2022-08-17T03:19:08.795Z,5.23
2022-08-17T03:21:40.776Z,5.40
2022-08-17T03:24:12.589Z,6.37
2022-08-17T03:26:44.464Z,6.63
2022-08-17T03:29:16.313Z,6.83
2022-08-17T03:31:48.158Z,6.90
2022-08-17T03:34:19.979Z,6.83
2022-08-17T03:36:51.821Z,8.87
2022-08-17T03:39:23.714Z,8.40
2022-08-17T03:41:55.676Z,7.90
2022-08-17T03:44:27.466Z,9.47
2022-08-17T03:46:59.298Z,9.73
2022-08-17T03:49:31.159Z,10.03
2022-08-17T03:52:02.994Z,10.23
2022-08-17T03:54:34.825Z,9.77
2022-08-17T03:57:06.658Z,10.00
2022-08-17T03:59:38.506Z,9.53
2022-08-17T04:02:10.848Z,8.90
2022-08-17T04:04:42.673Z,8.37
2022-08-17T04:07:14.514Z,9.57
2022-08-17T04:09:46.328Z,7.60
2022-08-17T04:12:18.159Z,7.90
2022-08-17T04:14:53.740Z,7.47
2022-08-17T04:17:23.467Z,8.10
2022-08-17T04:19:55.306Z,6.90
2022-08-17T04:22:32.048Z,8.17
2022-08-17T04:25:00.613Z,7.97
2022-08-17T04:27:32.427Z,8.87
2022-08-17T04:30:04.397Z,8.10
2022-08-17T04:33:10.559Z,8.87
2022-08-17T04:35:09.689Z,7.17
2022-08-17T04:37:41.555Z,8.17
2022-08-17T04:40:13.455Z,7.60
2022-08-17T04:42:47.434Z,7.20
2022-08-17T04:45:20.906Z,6.90
2022-08-17T04:47:54.250Z,7.50
2022-08-17T04:50:26.068Z,6.53
2022-08-17T04:52:58.211Z,6.67
2022-08-17T04:55:30.722Z,6.73
2022-08-17T04:58:02.554Z,6.70
2022-08-17T05:00:34.412Z,8.50
2022-08-17T05:03:06.266Z,7.23
2022-08-17T05:05:38.134Z,7.20
2022-08-17T05:08:09.991Z,7.90
2022-08-17T05:10:45.608Z,7.87
2022-08-17T05:13:16.061Z,7.30
2022-08-17T05:15:48.127Z,6.83
2022-08-17T05:18:20.475Z,7.07
2022-08-17T05:20:52.377Z,6.43
2022-08-17T05:23:24.622Z,6.50
2022-08-17T05:25:56.512Z,5.73
2022-08-17T05:28:28.312Z,6.47
2022-08-17T05:31:01.471Z,6.07
2022-08-17T05:33:33.282Z,6.30
2022-08-17T05:36:05.117Z,5.53
2022-08-17T05:38:37.006Z,6.07
2022-08-17T05:41:08.838Z,5.57
2022-08-17T05:43:40.673Z,5.17
2022-08-17T05:46:12.616Z,5.60
2022-08-17T05:48:44.449Z,5.90
2022-08-17T05:51:16.256Z,5.73
2022-08-17T05:53:48.119Z,5.03
2022-08-17T05:56:29.584Z,4.53
2022-08-17T05:58:53.464Z,5.80
2022-08-17T06:01:25.332Z,5.17
2022-08-17T06:03:57.148Z,5.17
2022-08-17T06:06:31.462Z,5.70
2022-08-17T06:09:03.542Z,4.93
2022-08-17T06:11:35.419Z,5.47
2022-08-17T06:14:08.830Z,4.83
2022-08-17T06:16:40.654Z,5.40
2022-08-17T06:19:14.685Z,4.80
2022-08-17T06:21:46.503Z,4.13
2022-08-17T06:24:18.391Z,3.77
2022-08-17T06:26:50.201Z,3.73
2022-08-17T06:29:22.056Z,3.27
2022-08-17T06:31:55.947Z,3.80
2022-08-17T06:34:27.769Z,3.10
2022-08-17T06:36:59.646Z,3.17
2022-08-17T06:39:31.579Z,2.77
2022-08-17T06:42:03.421Z,3.03
2022-08-17T06:44:43.284Z,3.40
2022-08-17T06:47:08.695Z,2.57
2022-08-17T06:49:40.538Z,2.90
2022-08-17T06:52:12.424Z,2.90
2022-08-17T06:54:45.897Z,2.70
2022-08-17T06:57:17.685Z,3.27
2022-08-17T06:59:55.341Z,3.10
2022-08-17T07:02:29.358Z,3.50
2022-08-17T07:04:56.479Z,3.27
2022-08-17T07:07:28.308Z,3.37
2022-08-17T07:10:00.366Z,3.30
2022-08-17T07:12:32.176Z,3.47
2022-08-17T07:15:04.915Z,3.03
2022-08-17T07:17:46.923Z,2.93
2022-08-17T07:20:10.201Z,3.17
2022-08-17T07:22:53.609Z,3.60
2022-08-17T07:25:16.038Z,3.37
2022-08-17T07:27:47.995Z,3.13
2022-08-17T07:30:19.818Z,3.10
2022-08-17T07:32:51.682Z,3.17
2022-08-17T07:35:23.510Z,2.60
2022-08-17T07:37:56.989Z,2.90
2022-08-17T07:40:28.860Z,2.33
2022-08-17T07:43:00.727Z,2.50
2022-08-17T07:45:32.847Z,2.37
2022-08-17T07:48:04.689Z,2.40
2022-08-17T07:50:37.097Z,2.50
2022-08-17T07:53:09.088Z,2.20
2022-08-17T07:55:40.872Z,2.17
2022-08-17T07:58:12.682Z,1.93
2022-08-17T08:00:44.533Z,1.83
2022-08-17T08:03:16.351Z,2.07
2022-08-17T08:05:50.643Z,2.00
2022-08-17T08:08:22.430Z,2.10
2022-08-17T08:10:54.308Z,2.10
2022-08-17T08:13:26.137Z,2.27
2022-08-17T08:15:57.950Z,2.20
2022-08-17T08:18:38.549Z,2.60
2022-08-17T08:21:03.240Z,2.40
2022-08-17T08:23:35.068Z,3.00
2022-08-17T08:26:06.877Z,2.87
2022-08-17T08:28:40.012Z,3.20
2022-08-17T08:31:11.856Z,3.20
2022-08-17T08:33:43.699Z,3.37
2022-08-17T08:36:56.969Z,3.87
2022-08-17T08:38:49.020Z,3.10
2022-08-17T08:41:20.834Z,3.53
2022-08-17T08:43:53.337Z,3.90
2022-08-17T08:46:25.358Z,3.23
2022-08-17T08:49:00.894Z,3.47
2022-08-17T08:51:30.618Z,4.23
2022-08-17T08:54:02.469Z,4.10
2022-08-17T08:56:34.302Z,4.10
2022-08-17T08:59:06.129Z,4.60
2022-08-17T09:01:38.528Z,4.73
2022-08-17T09:04:23.690Z,4.73
2022-08-17T09:06:43.914Z,5.50
2022-08-17T09:09:15.813Z,4.53
2022-08-17T09:12:02.911Z,5.00
2022-08-17T09:14:28.461Z,4.30
2022-08-17T09:16:55.297Z,4.70
2022-08-17T09:19:27.139Z,4.03
2022-08-17T09:21:58.948Z,3.60
2022-08-17T09:24:31.267Z,3.30
2022-08-17T09:27:03.097Z,3.13
2022-08-17T09:29:35.049Z,4.00
2022-08-17T09:32:06.937Z,2.77
2022-08-17T09:34:38.801Z,2.40
2022-08-17T09:37:12.295Z,3.03
2022-08-17T09:39:44.157Z,3.03
2022-08-17T09:42:16.159Z,2.90
2022-08-17T09:44:48.013Z,3.33
2022-08-17T09:47:19.996Z,3.10
2022-08-17T09:49:51.772Z,3.17
2022-08-17T09:52:23.615Z,3.10
2022-08-17T09:54:55.441Z,3.57
2022-08-17T09:57:31.705Z,3.77
2022-08-17T10:00:00.712Z,3.03
2022-08-17T10:02:32.557Z,3.30
2022-08-17T10:05:04.373Z,4.77
2022-08-17T10:07:36.231Z,2.90
2022-08-17T10:10:13.586Z,3.10
2022-08-17T10:12:46.481Z,2.80
2022-08-17T10:15:15.208Z,2.70
2022-08-17T10:17:48.821Z,3.40
2022-08-17T10:20:20.801Z,3.23
2022-08-17T10:22:55.009Z,3.00
2022-08-17T10:25:42.871Z,2.53
2022-08-17T10:28:02.229Z,2.97
2022-08-17T10:30:34.046Z,3.30
2022-08-17T10:33:05.846Z,3.40
2022-08-17T10:35:37.773Z,2.90
2022-08-17T10:38:09.621Z,3.17
2022-08-17T10:40:41.815Z,3.00
2022-08-17T10:43:13.601Z,2.83
2022-08-17T10:45:45.821Z,2.60
2022-08-17T10:48:19.047Z,2.83
2022-08-17T10:50:51.073Z,2.40
2022-08-17T10:53:22.889Z,3.90
2022-08-17T10:55:54.715Z,2.83
2022-08-17T10:58:27.148Z,2.57
2022-08-17T11:00:59.143Z,2.67
2022-08-17T11:03:31.395Z,3.20
2022-08-17T11:06:04.186Z,2.67
2022-08-17T11:08:35.994Z,2.73
2022-08-17T11:11:08.046Z,2.93
2022-08-17T11:13:39.880Z,2.60
2022-08-17T11:16:11.920Z,2.40
2022-08-17T11:18:43.777Z,3.33
2022-08-17T11:21:15.671Z,3.10
2022-08-17T11:23:47.556Z,3.10
2022-08-17T11:26:19.373Z,2.40
2022-08-17T11:28:52.630Z,2.70
2022-08-17T11:31:38.854Z,2.77
2022-08-17T11:33:58.259Z,2.70
2022-08-17T11:36:30.091Z,3.67
2022-08-17T11:39:01.907Z,2.90
2022-08-17T11:41:33.793Z,3.00
2022-08-17T11:44:05.620Z,2.60
2022-08-17T11:46:37.482Z,3.27
2022-08-17T11:49:09.324Z,3.03
2022-08-17T11:51:42.161Z,4.50
2022-08-17T11:54:32.245Z,3.63
2022-08-17T11:56:47.571Z,3.67
2022-08-17T11:59:19.461Z,4.20
2022-08-17T12:01:51.264Z,3.50
2022-08-17T12:04:23.160Z,3.53
2022-08-17T12:06:54.951Z,4.40
2022-08-17T12:09:26.814Z,4.40
2022-08-17T12:12:13.821Z,3.67
2022-08-17T12:15:05.920Z,4.10
2022-08-17T12:17:05.551Z,4.93
2022-08-17T12:19:37.386Z,4.33
2022-08-17T12:22:09.263Z,5.10
2022-08-17T12:24:41.182Z,5.00
2022-08-17T12:27:13.188Z,5.00
2022-08-17T12:29:45.238Z,5.20
2022-08-17T12:32:17.480Z,5.73
2022-08-17T12:34:49.927Z,5.90
2022-08-17T12:37:22.004Z,6.93
2022-08-17T12:39:53.875Z,6.40
2022-08-17T12:42:25.735Z,6.67
2022-08-17T12:44:57.548Z,6.87
2022-08-17T12:47:29.560Z,6.80
2022-08-17T12:50:01.408Z,7.33
2022-08-17T12:52:33.249Z,6.50
2022-08-17T12:55:05.069Z,7.10
2022-08-17T12:57:36.889Z,6.17
2022-08-17T13:00:08.710Z,7.07
2022-08-17T13:02:40.544Z,5.67
2022-08-17T13:05:13.114Z,5.77
2022-08-17T13:07:44.951Z,5.67
2022-08-17T13:10:17.002Z,5.50
2022-08-17T13:12:48.822Z,5.20
2022-08-17T13:15:20.643Z,5.93
2022-08-17T13:17:52.474Z,5.03
2022-08-17T13:20:24.337Z,5.50
2022-08-17T13:22:56.199Z,5.87
2022-08-17T13:25:28.353Z,5.53
2022-08-17T13:28:00.171Z,5.97
2022-08-17T13:30:32.045Z,5.90
2022-08-17T13:33:04.786Z,5.40
2022-08-17T13:35:39.502Z,4.77
2022-08-17T13:38:10.552Z,5.30
2022-08-17T13:40:42.543Z,5.73
2022-08-17T13:43:14.329Z,4.37
2022-08-17T13:45:46.174Z,5.90
2022-08-17T13:48:19.938Z,5.60
2022-08-17T13:50:51.944Z,4.87
2022-08-17T13:53:23.783Z,5.50
2022-08-17T13:55:55.646Z,5.37
2022-08-17T13:58:27.506Z,4.77
2022-08-17T14:00:59.376Z,5.77
2022-08-17T14:03:31.239Z,5.80
2022-08-17T14:06:03.117Z,4.63
2022-08-17T14:08:34.953Z,4.30
2022-08-17T14:11:06.751Z,5.50
2022-08-17T14:13:38.602Z,5.40
2022-08-17T14:16:10.444Z,4.80
2022-08-17T14:18:57.011Z,5.70
2022-08-17T14:21:15.757Z,4.80
2022-08-17T14:23:49.969Z,4.47
2022-08-17T14:26:21.025Z,4.80
2022-08-17T14:28:56.915Z,4.30
2022-08-17T14:31:27.950Z,4.63
2022-08-17T14:33:59.789Z,4.83
2022-08-17T14:36:31.639Z,5.13
2022-08-17T14:39:03.465Z,5.33
2022-08-17T14:41:35.528Z,5.30
2022-08-17T14:44:07.370Z,5.17
2022-08-17T14:46:39.185Z,5.10
2022-08-17T14:49:11.186Z,4.70
2022-08-17T14:51:43.637Z,4.63
2022-08-17T14:54:33.652Z,5.43
2022-08-17T14:56:57.065Z,5.40
2022-08-17T14:59:23.518Z,4.70
2022-08-17T15:01:55.339Z,4.87
2022-08-17T15:04:27.184Z,4.60
2022-08-17T15:06:59.255Z,4.80
2022-08-17T15:09:31.092Z,4.47
2022-08-17T15:12:04.536Z,4.87
2022-08-17T15:14:36.358Z,4.67
2022-08-17T15:17:08.177Z,5.17
2022-08-17T15:19:40.064Z,5.20
2022-08-17T15:22:11.941Z,5.43
2022-08-17T15:24:43.753Z,5.40
2022-08-17T15:27:15.625Z,5.33
2022-08-17T15:29:49.066Z,6.13
2022-08-17T15:32:20.971Z,5.23
2022-08-17T15:34:52.787Z,5.97
2022-08-17T15:37:24.636Z,6.07
2022-08-17T15:39:56.586Z,5.67
2022-08-17T15:42:28.562Z,5.20
2022-08-17T15:45:00.362Z,5.63
2022-08-17T15:47:32.222Z,6.00
2022-08-17T15:50:04.087Z,5.93
2022-08-17T15:52:35.920Z,5.37
2022-08-17T15:55:07.733Z,5.10
2022-08-17T15:57:39.623Z,6.10
2022-08-17T16:00:11.448Z,6.20
2022-08-17T16:03:44.865Z,6.20
2022-08-17T16:05:19.860Z,5.70
2022-08-17T16:07:52.271Z,5.23
2022-08-17T16:10:33.948Z,6.20
2022-08-17T16:12:58.155Z,5.57
2022-08-17T16:15:30.202Z,5.27
2022-08-17T16:18:02.018Z,5.60
2022-08-17T16:20:33.885Z,4.23
2022-08-17T16:23:06.320Z,5.87
2022-08-17T16:25:53.236Z,4.57
2022-08-17T16:28:12.142Z,5.20
2022-08-17T16:30:43.968Z,5.30
2022-08-17T16:33:15.798Z,5.07
2022-08-17T16:35:47.727Z,4.37
2022-08-17T16:38:20.257Z,4.50
2022-08-17T16:40:52.321Z,4.67
2022-08-17T16:43:24.054Z,5.10
2022-08-17T16:45:55.879Z,3.83
2022-08-17T16:48:27.800Z,5.10
2022-08-17T16:51:03.311Z,5.70
2022-08-17T16:53:33.174Z,5.97
2022-08-17T16:56:05.137Z,5.27
2022-08-17T16:58:36.986Z,5.43
2022-08-17T17:01:10.664Z,4.50
2022-08-17T17:03:42.667Z,5.40
2022-08-17T17:06:14.551Z,5.13
2022-08-17T17:08:47.247Z,4.93
2022-08-17T17:11:19.483Z,4.83
2022-08-17T17:13:51.321Z,4.17
2022-08-17T17:16:23.124Z,4.60
2022-08-17T17:18:55.034Z,4.83
2022-08-17T17:21:26.977Z,5.03
2022-08-17T17:23:58.818Z,4.80
2022-08-17T17:26:30.649Z,6.20
2022-08-17T17:29:02.562Z,5.97
2022-08-17T17:31:34.398Z,6.10
2022-08-17T17:34:06.258Z,4.70
2022-08-17T17:36:38.061Z,4.73
2022-08-17T17:39:09.905Z,5.33
2022-08-17T17:41:41.710Z,5.50
2022-08-17T17:44:13.597Z,5.43
2022-08-17T17:46:47.073Z,5.47
2022-08-17T17:49:18.915Z,5.17
2022-08-17T17:52:06.590Z,5.40
2022-08-17T17:54:24.211Z,4.60
2022-08-17T17:56:56.052Z,5.00
2022-08-17T17:59:27.864Z,4.57
2022-08-17T18:01:59.723Z,4.30
2022-08-17T18:04:31.512Z,4.07
2022-08-17T18:07:03.337Z,4.37
2022-08-17T18:09:35.269Z,5.13
2022-08-17T18:12:07.837Z,4.63
2022-08-17T18:14:39.670Z,5.33
2022-08-17T18:17:11.484Z,4.70
2022-08-17T18:19:43.289Z,4.57
2022-08-17T18:22:15.123Z,4.27
2022-08-17T18:24:46.953Z,4.30
2022-08-17T18:27:18.832Z,4.47
2022-08-17T18:29:50.628Z,3.77
2022-08-17T18:32:22.675Z,4.40
2022-08-17T18:34:54.520Z,4.40
2022-08-17T18:37:26.518Z,4.03
2022-08-17T18:39:58.371Z,4.13
2022-08-17T18:42:30.247Z,4.33
2022-08-17T18:45:02.057Z,4.00
2022-08-17T18:47:33.857Z,4.07
2022-08-17T18:50:05.709Z,3.83
2022-08-17T18:52:39.152Z,3.90
2022-08-17T18:55:11.368Z,4.43
2022-08-17T18:57:43.262Z,3.57
2022-08-17T19:00:15.074Z,2.70
2022-08-17T19:02:47.035Z,1.70
2022-08-17T19:05:18.903Z,0.90
2022-08-17T19:07:50.876Z,1.00
2022-08-17T19:10:22.902Z,0.93
2022-08-17T19:12:54.694Z,1.00
2022-08-17T19:15:28.147Z,1.03
2022-08-17T19:18:00.020Z,1.90
2022-08-17T19:20:31.859Z,1.80
2022-08-17T19:23:03.698Z,2.20
2022-08-17T19:25:35.522Z,2.00
2022-08-17T19:28:21.695Z,2.93
2022-08-17T19:30:41.031Z,3.97
2022-08-17T19:33:14.483Z,3.37
2022-08-17T19:35:46.342Z,3.30
2022-08-17T19:38:18.161Z,3.70
2022-08-17T19:40:54.267Z,3.73
2022-08-17T19:43:23.458Z,2.87
2022-08-17T19:45:55.344Z,2.60
2022-08-17T19:48:27.209Z,1.80
2022-08-17T19:50:59.006Z,1.97
2022-08-17T19:53:54.041Z,2.10
2022-08-17T19:56:04.282Z,2.83
2022-08-17T19:58:36.182Z,2.73
2022-08-17T20:01:08.049Z,2.50
2022-08-17T20:03:40.080Z,3.17
2022-08-17T20:06:13.427Z,3.17
2022-08-17T20:08:45.511Z,3.47
2022-08-17T20:11:17.397Z,3.77
2022-08-17T20:13:49.218Z,3.83
2022-08-17T20:16:21.086Z,4.33
2022-08-17T20:18:52.905Z,4.13
2022-08-17T20:21:24.731Z,3.80
2022-08-17T20:23:56.555Z,4.80
2022-08-17T20:26:28.421Z,4.57
2022-08-17T20:29:00.240Z,5.03
2022-08-17T20:31:32.072Z,5.07
2022-08-17T20:34:03.895Z,5.53
2022-08-17T20:36:35.720Z,5.47
2022-08-17T20:39:07.560Z,4.97
2022-08-17T20:41:39.418Z,5.33
2022-08-17T20:44:11.231Z,5.70
2022-08-17T20:46:43.046Z,5.20
2022-08-17T20:49:15.695Z,5.77
2022-08-17T20:52:00.841Z,5.30
2022-08-17T20:54:21.066Z,5.40
2022-08-17T20:56:52.895Z,5.47
2022-08-17T20:59:24.738Z,5.50
2022-08-17T21:01:56.588Z,5.63
2022-08-17T21:04:28.408Z,6.33
2022-08-17T21:07:00.236Z,5.40
2022-08-17T21:09:32.119Z,5.57
2022-08-17T21:12:05.634Z,4.90
2022-08-17T21:14:37.368Z,4.47
2022-08-17T21:17:09.186Z,5.43
2022-08-17T21:20:00.523Z,5.37
2022-08-17T21:22:14.469Z,5.10
2022-08-17T21:24:46.260Z,5.07
2022-08-17T21:27:18.070Z,5.97
2022-08-17T21:29:49.885Z,4.50
2022-08-17T21:32:25.287Z,5.07
2022-08-17T21:34:55.758Z,4.90
2022-08-17T21:37:27.574Z,4.80
2022-08-17T21:39:59.501Z,5.20
2022-08-17T21:42:31.398Z,5.10
2022-08-17T21:45:03.237Z,5.07
2022-08-17T21:47:35.077Z,4.43
2022-08-17T21:50:06.964Z,4.80
2022-08-17T21:52:38.753Z,4.30
2022-08-17T21:55:10.595Z,5.10
2022-08-17T21:57:52.945Z,4.80
2022-08-17T22:00:16.076Z,4.93
2022-08-17T22:02:47.901Z,5.07
2022-08-17T22:05:19.743Z,5.77
2022-08-17T22:07:51.722Z,4.90
2022-08-17T22:10:28.656Z,5.03
2022-08-17T22:13:00.478Z,5.67
2022-08-17T22:15:34.874Z,4.63
2022-08-17T22:18:05.745Z,5.00
2022-08-17T22:20:37.609Z,5.10
2022-08-17T22:23:09.418Z,4.33
2022-08-17T22:25:41.237Z,4.87
2022-08-17T22:28:13.057Z,4.27
2022-08-17T22:30:44.999Z,5.00
2022-08-17T22:33:16.793Z,4.67
2022-08-17T22:35:48.632Z,4.10
2022-08-17T22:38:20.459Z,4.47
2022-08-17T22:40:52.312Z,4.10
2022-08-17T22:43:25.906Z,3.60
2022-08-17T22:45:57.561Z,4.40
2022-08-17T22:48:29.677Z,4.60
2022-08-17T22:51:01.742Z,5.43
2022-08-17T22:53:33.599Z,3.50
2022-08-17T22:56:05.448Z,3.67
2022-08-17T22:58:37.244Z,3.57
2022-08-17T23:01:09.087Z,4.23
2022-08-17T23:03:40.974Z,3.80
2022-08-17T23:06:12.767Z,2.97
2022-08-17T23:08:44.611Z,3.73
2022-08-17T23:11:16.437Z,3.47
2022-08-17T23:13:48.261Z,3.13
2022-08-17T23:16:20.063Z,3.23
2022-08-17T23:18:51.930Z,3.30
2022-08-17T23:21:27.174Z,3.23
2022-08-17T23:23:57.656Z,3.40
2022-08-17T23:26:29.479Z,2.80
2022-08-17T23:29:01.534Z,3.30
2022-08-17T23:31:33.360Z,2.90
2022-08-17T23:34:05.393Z,3.40
2022-08-17T23:36:38.733Z,3.43
2022-08-17T23:39:10.759Z,4.30
2022-08-17T23:41:42.606Z,3.60
2022-08-17T23:44:14.411Z,3.40
2022-08-17T23:46:46.258Z,3.07
2022-08-17T23:49:18.300Z,3.83
2022-08-17T23:51:50.099Z,3.60
2022-08-17T23:54:21.952Z,3.07
2022-08-17T23:56:53.808Z,3.13
2022-08-17T23:59:25.677Z,3.20
